sensor_id;sensor_type;location;lat;lon;timestamp;P1;durP1;ratioP1;P2;durP2;ratioP2
3321;SDS011;1673;51.388;7.086;2023-08-01T00:00:39;4.10;;;1.50;;
3321;SDS011;1673;51.388;7.086;2023-08-01T00:03:09;5.50;;;1.80;;
3321;SDS011;1673;51.388;7.086;2023-08-01T00:05:42;4.90;;;1.60;;
3321;SDS011;1673;51.388;7.086;2023-08-01T00:08:13;5.50;;;2.00;;
3321;SDS011;1673;51.388;7.086;2023-08-01T00:10:43;4.70;;;2.30;;
3321;SDS011;1673;51.388;7.086;2023-08-01T00:13:13;6.47;;;2.10;;
3321;SDS011;1673;51.388;7.086;2023-08-01T00:15:43;4.68;;;2.05;;
3321;SDS011;1673;51.388;7.086;2023-08-01T00:18:32;7.40;;;2.27;;
3321;SDS011;1673;51.388;7.086;2023-08-01T00:21:08;5.88;;;2.55;;
3321;SDS011;1673;51.388;7.086;2023-08-01T00:23:38;8.65;;;2.53;;
3321;SDS011;1673;51.388;7.086;2023-08-01T00:26:09;6.03;;;2.70;;
3321;SDS011;1673;51.388;7.086;2023-08-01T00:28:46;5.93;;;2.87;;
3321;SDS011;1673;51.388;7.086;2023-08-01T00:31:19;6.00;;;3.10;;
3321;SDS011;1673;51.388;7.086;2023-08-01T00:34:02;6.80;;;3.00;;
3321;SDS011;1673;51.388;7.086;2023-08-01T00:36:47;6.10;;;2.87;;
3321;SDS011;1673;51.388;7.086;2023-08-01T00:39:19;6.70;;;2.70;;
3321;SDS011;1673;51.388;7.086;2023-08-01T00:41:49;6.00;;;1.70;;
3321;SDS011;1673;51.388;7.086;2023-08-01T00:44:19;6.20;;;1.90;;
3321;SDS011;1673;51.388;7.086;2023-08-01T00:46:49;3.80;;;1.65;;
3321;SDS011;1673;51.388;7.086;2023-08-01T00:49:19;3.70;;;1.38;;
3321;SDS011;1673;51.388;7.086;2023-08-01T00:51:51;4.00;;;1.30;;
3321;SDS011;1673;51.388;7.086;2023-08-01T00:54:22;4.53;;;1.60;;
3321;SDS011;1673;51.388;7.086;2023-08-01T00:56:52;4.28;;;1.52;;
3321;SDS011;1673;51.388;7.086;2023-08-01T00:59:22;5.40;;;1.50;;
3321;SDS011;1673;51.388;7.086;2023-08-01T01:01:52;4.15;;;1.35;;
3321;SDS011;1673;51.388;7.086;2023-08-01T01:04:22;4.50;;;1.50;;
3321;SDS011;1673;51.388;7.086;2023-08-01T01:07:00;4.72;;;1.70;;
3321;SDS011;1673;51.388;7.086;2023-08-01T01:09:32;5.22;;;1.67;;
3321;SDS011;1673;51.388;7.086;2023-08-01T01:12:02;4.50;;;1.57;;
3321;SDS011;1673;51.388;7.086;2023-08-01T01:14:31;4.13;;;1.50;;
3321;SDS011;1673;51.388;7.086;2023-08-01T01:17:00;4.70;;;1.80;;
3321;SDS011;1673;51.388;7.086;2023-08-01T01:19:31;4.22;;;1.73;;
3321;SDS011;1673;51.388;7.086;2023-08-01T01:22:04;4.38;;;1.60;;
3321;SDS011;1673;51.388;7.086;2023-08-01T01:24:34;3.90;;;1.53;;
3321;SDS011;1673;51.388;7.086;2023-08-01T01:27:05;5.97;;;2.08;;
3321;SDS011;1673;51.388;7.086;2023-08-01T01:29:35;8.68;;;1.50;;
3321;SDS011;1673;51.388;7.086;2023-08-01T01:32:06;4.25;;;1.73;;
3321;SDS011;1673;51.388;7.086;2023-08-01T01:34:37;5.90;;;1.90;;
3321;SDS011;1673;51.388;7.086;2023-08-01T01:37:10;5.43;;;1.90;;
3321;SDS011;1673;51.388;7.086;2023-08-01T01:39:40;5.27;;;2.17;;
3321;SDS011;1673;51.388;7.086;2023-08-01T01:42:10;6.93;;;3.25;;
3321;SDS011;1673;51.388;7.086;2023-08-01T01:44:40;8.63;;;4.03;;
3321;SDS011;1673;51.388;7.086;2023-08-01T01:47:10;10.70;;;4.70;;
3321;SDS011;1673;51.388;7.086;2023-08-01T01:49:40;9.15;;;4.80;;
3321;SDS011;1673;51.388;7.086;2023-08-01T01:52:12;9.02;;;4.57;;
3321;SDS011;1673;51.388;7.086;2023-08-01T01:54:42;12.15;;;5.15;;
3321;SDS011;1673;51.388;7.086;2023-08-01T01:57:13;11.50;;;5.20;;
3321;SDS011;1673;51.388;7.086;2023-08-01T01:59:43;11.55;;;4.40;;
3321;SDS011;1673;51.388;7.086;2023-08-01T02:02:13;10.32;;;4.82;;
3321;SDS011;1673;51.388;7.086;2023-08-01T02:04:45;8.65;;;4.30;;
3321;SDS011;1673;51.388;7.086;2023-08-01T02:07:20;9.13;;;3.83;;
3321;SDS011;1673;51.388;7.086;2023-08-01T02:09:53;9.20;;;3.60;;
3321;SDS011;1673;51.388;7.086;2023-08-01T02:12:46;6.33;;;3.13;;
3321;SDS011;1673;51.388;7.086;2023-08-01T02:15:22;9.00;;;3.42;;
3321;SDS011;1673;51.388;7.086;2023-08-01T02:17:55;6.93;;;3.15;;
3321;SDS011;1673;51.388;7.086;2023-08-01T02:20:30;8.55;;;3.20;;
3321;SDS011;1673;51.388;7.086;2023-08-01T02:23:05;8.23;;;3.10;;
3321;SDS011;1673;51.388;7.086;2023-08-01T02:25:38;5.40;;;2.60;;
3321;SDS011;1673;51.388;7.086;2023-08-01T02:28:09;7.00;;;2.80;;
3321;SDS011;1673;51.388;7.086;2023-08-01T02:30:39;11.48;;;3.10;;
3321;SDS011;1673;51.388;7.086;2023-08-01T02:33:10;7.32;;;3.33;;
3321;SDS011;1673;51.388;7.086;2023-08-01T02:35:45;8.10;;;3.53;;
3321;SDS011;1673;51.388;7.086;2023-08-01T02:38:18;9.27;;;3.35;;
3321;SDS011;1673;51.388;7.086;2023-08-01T02:40:49;10.73;;;3.72;;
3321;SDS011;1673;51.388;7.086;2023-08-01T02:43:19;10.55;;;3.60;;
3321;SDS011;1673;51.388;7.086;2023-08-01T02:45:49;27.58;;;5.20;;
3321;SDS011;1673;51.388;7.086;2023-08-01T02:48:19;11.75;;;5.13;;
3321;SDS011;1673;51.388;7.086;2023-08-01T02:50:49;13.05;;;4.13;;
3321;SDS011;1673;51.388;7.086;2023-08-01T02:53:25;11.73;;;4.93;;
3321;SDS011;1673;51.388;7.086;2023-08-01T02:55:55;16.15;;;4.88;;
3321;SDS011;1673;51.388;7.086;2023-08-01T02:58:26;12.18;;;6.30;;
3321;SDS011;1673;51.388;7.086;2023-08-01T03:00:57;15.57;;;7.78;;
3321;SDS011;1673;51.388;7.086;2023-08-01T03:03:28;17.98;;;7.70;;
3321;SDS011;1673;51.388;7.086;2023-08-01T03:06:00;16.50;;;8.00;;
3321;SDS011;1673;51.388;7.086;2023-08-01T03:08:33;21.33;;;8.80;;
3321;SDS011;1673;51.388;7.086;2023-08-01T03:11:03;17.88;;;8.88;;
3321;SDS011;1673;51.388;7.086;2023-08-01T03:13:33;19.27;;;9.55;;
3321;SDS011;1673;51.388;7.086;2023-08-01T03:16:04;21.58;;;9.93;;
3321;SDS011;1673;51.388;7.086;2023-08-01T03:18:37;20.95;;;10.23;;
3321;SDS011;1673;51.388;7.086;2023-08-01T03:21:06;19.25;;;10.25;;
3321;SDS011;1673;51.388;7.086;2023-08-01T03:23:39;18.97;;;11.30;;
3321;SDS011;1673;51.388;7.086;2023-08-01T03:26:09;21.35;;;10.70;;
3321;SDS011;1673;51.388;7.086;2023-08-01T03:28:44;22.13;;;11.73;;
3321;SDS011;1673;51.388;7.086;2023-08-01T03:31:14;25.20;;;12.65;;
3321;SDS011;1673;51.388;7.086;2023-08-01T03:33:45;24.13;;;12.43;;
3321;SDS011;1673;51.388;7.086;2023-08-01T03:36:15;25.13;;;12.68;;
3321;SDS011;1673;51.388;7.086;2023-08-01T03:38:48;23.20;;;12.13;;
3321;SDS011;1673;51.388;7.086;2023-08-01T03:41:18;24.83;;;13.07;;
3321;SDS011;1673;51.388;7.086;2023-08-01T03:43:53;31.08;;;13.70;;
3321;SDS011;1673;51.388;7.086;2023-08-01T03:46:23;26.00;;;13.65;;
3321;SDS011;1673;51.388;7.086;2023-08-01T03:48:53;30.58;;;13.90;;
3321;SDS011;1673;51.388;7.086;2023-08-01T03:51:22;27.25;;;13.45;;
3321;SDS011;1673;51.388;7.086;2023-08-01T03:53:55;28.50;;;13.52;;
3321;SDS011;1673;51.388;7.086;2023-08-01T03:56:39;24.90;;;13.13;;
3321;SDS011;1673;51.388;7.086;2023-08-01T03:59:11;31.02;;;12.93;;
3321;SDS011;1673;51.388;7.086;2023-08-01T04:01:42;27.20;;;12.80;;
3321;SDS011;1673;51.388;7.086;2023-08-01T04:04:15;27.70;;;13.07;;
3321;SDS011;1673;51.388;7.086;2023-08-01T04:06:47;28.48;;;13.00;;
3321;SDS011;1673;51.388;7.086;2023-08-01T04:09:48;26.73;;;12.80;;
3321;SDS011;1673;51.388;7.086;2023-08-01T04:12:19;32.67;;;14.63;;
3321;SDS011;1673;51.388;7.086;2023-08-01T04:14:49;30.30;;;14.02;;
3321;SDS011;1673;51.388;7.086;2023-08-01T04:17:19;35.17;;;14.85;;
3321;SDS011;1673;51.388;7.086;2023-08-01T04:19:49;37.33;;;16.27;;
3321;SDS011;1673;51.388;7.086;2023-08-01T04:22:19;29.17;;;14.47;;
3321;SDS011;1673;51.388;7.086;2023-08-01T04:24:52;31.55;;;15.32;;
3321;SDS011;1673;51.388;7.086;2023-08-01T04:27:22;30.23;;;14.75;;
3321;SDS011;1673;51.388;7.086;2023-08-01T04:29:52;31.23;;;15.20;;
3321;SDS011;1673;51.388;7.086;2023-08-01T04:32:22;34.50;;;15.38;;
3321;SDS011;1673;51.388;7.086;2023-08-01T04:34:52;29.90;;;15.60;;
3321;SDS011;1673;51.388;7.086;2023-08-01T04:37:25;33.67;;;16.20;;
3321;SDS011;1673;51.388;7.086;2023-08-01T04:39:59;34.75;;;16.02;;
3321;SDS011;1673;51.388;7.086;2023-08-01T04:42:29;36.63;;;16.15;;
3321;SDS011;1673;51.388;7.086;2023-08-01T04:44:59;36.13;;;15.68;;
3321;SDS011;1673;51.388;7.086;2023-08-01T04:47:29;34.67;;;16.38;;
3321;SDS011;1673;51.388;7.086;2023-08-01T04:49:59;36.70;;;16.93;;
3321;SDS011;1673;51.388;7.086;2023-08-01T04:52:29;38.88;;;17.50;;
3321;SDS011;1673;51.388;7.086;2023-08-01T04:55:02;31.75;;;17.30;;
3321;SDS011;1673;51.388;7.086;2023-08-01T04:57:34;39.15;;;17.17;;
3321;SDS011;1673;51.388;7.086;2023-08-01T05:00:11;36.60;;;16.02;;
3321;SDS011;1673;51.388;7.086;2023-08-01T05:02:42;35.35;;;18.00;;
3321;SDS011;1673;51.388;7.086;2023-08-01T05:05:12;33.60;;;16.60;;
3321;SDS011;1673;51.388;7.086;2023-08-01T05:07:42;32.25;;;16.02;;
3321;SDS011;1673;51.388;7.086;2023-08-01T05:10:16;32.28;;;16.02;;
3321;SDS011;1673;51.388;7.086;2023-08-01T05:12:48;33.78;;;16.27;;
3321;SDS011;1673;51.388;7.086;2023-08-01T05:15:17;34.50;;;16.73;;
3321;SDS011;1673;51.388;7.086;2023-08-01T05:17:48;36.60;;;16.70;;
3321;SDS011;1673;51.388;7.086;2023-08-01T05:20:17;33.53;;;17.13;;
3321;SDS011;1673;51.388;7.086;2023-08-01T05:22:48;34.17;;;17.13;;
3321;SDS011;1673;51.388;7.086;2023-08-01T05:25:24;36.20;;;17.35;;
3321;SDS011;1673;51.388;7.086;2023-08-01T05:27:55;39.50;;;18.87;;
3321;SDS011;1673;51.388;7.086;2023-08-01T05:30:26;40.58;;;19.25;;
3321;SDS011;1673;51.388;7.086;2023-08-01T05:32:56;41.17;;;20.00;;
3321;SDS011;1673;51.388;7.086;2023-08-01T12:08:08;17.38;;;6.45;;
3321;SDS011;1673;51.388;7.086;2023-08-01T13:01:53;12.13;;;4.72;;
3321;SDS011;1673;51.388;7.086;2023-08-01T13:44:53;16.65;;;4.30;;
3321;SDS011;1673;51.388;7.086;2023-08-01T13:50:42;11.27;;;3.95;;
3321;SDS011;1673;51.388;7.086;2023-08-01T13:53:46;9.73;;;2.92;;
3321;SDS011;1673;51.388;7.086;2023-08-01T13:56:18;9.43;;;3.30;;
3321;SDS011;1673;51.388;7.086;2023-08-01T14:04:54;9.52;;;4.20;;
3321;SDS011;1673;51.388;7.086;2023-08-01T14:07:59;11.98;;;4.30;;
3321;SDS011;1673;51.388;7.086;2023-08-01T14:10:42;14.17;;;4.50;;
3321;SDS011;1673;51.388;7.086;2023-08-01T14:16:26;13.63;;;4.40;;
3321;SDS011;1673;51.388;7.086;2023-08-01T14:19:17;14.88;;;4.40;;
3321;SDS011;1673;51.388;7.086;2023-08-01T14:22:16;12.70;;;4.60;;
3321;SDS011;1673;51.388;7.086;2023-08-01T14:24:47;8.07;;;3.80;;
3321;SDS011;1673;51.388;7.086;2023-08-01T14:27:40;11.82;;;3.70;;
3321;SDS011;1673;51.388;7.086;2023-08-01T14:30:10;8.87;;;3.73;;
3321;SDS011;1673;51.388;7.086;2023-08-01T14:32:47;11.65;;;4.95;;
3321;SDS011;1673;51.388;7.086;2023-08-01T14:35:24;11.25;;;3.42;;
3321;SDS011;1673;51.388;7.086;2023-08-01T14:37:54;11.40;;;3.90;;
3321;SDS011;1673;51.388;7.086;2023-08-01T14:40:32;12.18;;;4.30;;
3321;SDS011;1673;51.388;7.086;2023-08-01T14:43:30;11.02;;;4.20;;
3321;SDS011;1673;51.388;7.086;2023-08-01T14:46:09;11.55;;;4.10;;
3321;SDS011;1673;51.388;7.086;2023-08-01T14:48:46;12.80;;;4.15;;
3321;SDS011;1673;51.388;7.086;2023-08-01T14:51:19;13.35;;;4.22;;
3321;SDS011;1673;51.388;7.086;2023-08-01T14:54:01;10.20;;;3.80;;
3321;SDS011;1673;51.388;7.086;2023-08-01T15:00:20;13.55;;;4.80;;
3321;SDS011;1673;51.388;7.086;2023-08-01T18:12:21;6.80;;;2.15;;
3321;SDS011;1673;51.388;7.086;2023-08-01T18:14:51;8.50;;;2.40;;
3321;SDS011;1673;51.388;7.086;2023-08-01T18:17:21;8.60;;;2.28;;
3321;SDS011;1673;51.388;7.086;2023-08-01T18:19:51;9.70;;;2.10;;
3321;SDS011;1673;51.388;7.086;2023-08-01T18:22:21;10.40;;;2.40;;
3321;SDS011;1673;51.388;7.086;2023-08-01T18:24:51;10.65;;;2.70;;
3321;SDS011;1673;51.388;7.086;2023-08-01T18:27:27;7.07;;;2.22;;
3321;SDS011;1673;51.388;7.086;2023-08-01T18:29:57;6.78;;;2.67;;
3321;SDS011;1673;51.388;7.086;2023-08-01T18:32:27;8.73;;;2.13;;
3321;SDS011;1673;51.388;7.086;2023-08-01T18:34:57;7.60;;;2.30;;
3321;SDS011;1673;51.388;7.086;2023-08-01T18:37:28;8.82;;;2.60;;
3321;SDS011;1673;51.388;7.086;2023-08-01T18:39:58;7.10;;;2.50;;
3321;SDS011;1673;51.388;7.086;2023-08-01T18:42:30;8.13;;;2.30;;
3321;SDS011;1673;51.388;7.086;2023-08-01T18:45:00;8.02;;;2.90;;
3321;SDS011;1673;51.388;7.086;2023-08-01T18:47:33;13.40;;;3.00;;
3321;SDS011;1673;51.388;7.086;2023-08-01T18:50:03;10.07;;;2.60;;
3321;SDS011;1673;51.388;7.086;2023-08-01T18:52:34;8.23;;;2.78;;
3321;SDS011;1673;51.388;7.086;2023-08-01T18:55:04;9.60;;;2.70;;
3321;SDS011;1673;51.388;7.086;2023-08-01T18:57:49;8.05;;;2.95;;
3321;SDS011;1673;51.388;7.086;2023-08-01T19:00:22;6.85;;;2.50;;
3321;SDS011;1673;51.388;7.086;2023-08-01T19:02:52;10.57;;;2.60;;
3321;SDS011;1673;51.388;7.086;2023-08-01T19:05:23;9.50;;;2.92;;
3321;SDS011;1673;51.388;7.086;2023-08-01T19:07:53;6.43;;;2.60;;
3321;SDS011;1673;51.388;7.086;2023-08-01T19:10:23;8.02;;;2.95;;
3321;SDS011;1673;51.388;7.086;2023-08-01T19:12:56;8.30;;;2.90;;
3321;SDS011;1673;51.388;7.086;2023-08-01T19:15:26;13.60;;;2.90;;
3321;SDS011;1673;51.388;7.086;2023-08-01T19:17:57;7.78;;;3.15;;
3321;SDS011;1673;51.388;7.086;2023-08-01T19:20:28;9.90;;;2.83;;
3321;SDS011;1673;51.388;7.086;2023-08-01T19:22:58;11.20;;;2.73;;
3321;SDS011;1673;51.388;7.086;2023-08-01T19:25:28;9.52;;;2.80;;
3321;SDS011;1673;51.388;7.086;2023-08-01T19:28:01;9.25;;;3.03;;
3321;SDS011;1673;51.388;7.086;2023-08-01T19:30:30;6.25;;;2.60;;
3321;SDS011;1673;51.388;7.086;2023-08-01T19:33:00;7.70;;;2.60;;
3321;SDS011;1673;51.388;7.086;2023-08-01T19:35:31;7.20;;;2.38;;
3321;SDS011;1673;51.388;7.086;2023-08-01T19:38:01;8.20;;;3.28;;
3321;SDS011;1673;51.388;7.086;2023-08-01T19:40:31;9.97;;;2.53;;
3321;SDS011;1673;51.388;7.086;2023-08-01T19:43:03;7.60;;;2.42;;
3321;SDS011;1673;51.388;7.086;2023-08-01T19:45:33;10.27;;;2.80;;
3321;SDS011;1673;51.388;7.086;2023-08-01T19:48:03;8.68;;;2.65;;
3321;SDS011;1673;51.388;7.086;2023-08-01T19:50:35;7.50;;;2.80;;
3321;SDS011;1673;51.388;7.086;2023-08-01T19:53:05;11.20;;;3.10;;
3321;SDS011;1673;51.388;7.086;2023-08-01T19:55:35;8.07;;;2.50;;
3321;SDS011;1673;51.388;7.086;2023-08-01T19:58:07;7.60;;;2.67;;
3321;SDS011;1673;51.388;7.086;2023-08-01T20:00:37;7.60;;;3.15;;
3321;SDS011;1673;51.388;7.086;2023-08-01T20:03:07;7.35;;;2.30;;
3321;SDS011;1673;51.388;7.086;2023-08-01T20:05:37;12.95;;;2.83;;
3321;SDS011;1673;51.388;7.086;2023-08-01T20:08:07;8.32;;;3.38;;
3321;SDS011;1673;51.388;7.086;2023-08-01T20:10:37;41.42;;;18.63;;
3321;SDS011;1673;51.388;7.086;2023-08-01T20:13:10;8.93;;;4.13;;
3321;SDS011;1673;51.388;7.086;2023-08-01T20:15:40;20.38;;;7.30;;
3321;SDS011;1673;51.388;7.086;2023-08-01T20:18:09;21.67;;;11.85;;
3321;SDS011;1673;51.388;7.086;2023-08-01T20:20:39;17.65;;;8.48;;
3321;SDS011;1673;51.388;7.086;2023-08-01T20:23:09;10.63;;;4.70;;
3321;SDS011;1673;51.388;7.086;2023-08-01T20:25:39;15.45;;;7.15;;
3321;SDS011;1673;51.388;7.086;2023-08-01T20:28:12;11.38;;;4.15;;
3321;SDS011;1673;51.388;7.086;2023-08-01T20:30:44;12.40;;;5.10;;
3321;SDS011;1673;51.388;7.086;2023-08-01T20:33:14;27.10;;;14.55;;
3321;SDS011;1673;51.388;7.086;2023-08-01T20:35:53;67.50;;;35.72;;
3321;SDS011;1673;51.388;7.086;2023-08-01T20:38:25;90.80;;;36.40;;
3321;SDS011;1673;51.388;7.086;2023-08-01T20:40:55;13.57;;;4.53;;
3321;SDS011;1673;51.388;7.086;2023-08-01T20:43:28;15.48;;;8.48;;
3321;SDS011;1673;51.388;7.086;2023-08-01T20:45:57;17.50;;;6.07;;
3321;SDS011;1673;51.388;7.086;2023-08-01T20:48:28;17.57;;;6.80;;
3321;SDS011;1673;51.388;7.086;2023-08-01T20:50:58;14.43;;;5.97;;
3321;SDS011;1673;51.388;7.086;2023-08-01T20:53:28;10.35;;;4.30;;
3321;SDS011;1673;51.388;7.086;2023-08-01T20:55:58;9.13;;;3.15;;
3321;SDS011;1673;51.388;7.086;2023-08-01T21:01:04;13.45;;;5.82;;
3321;SDS011;1673;51.388;7.086;2023-08-01T21:03:34;11.98;;;5.43;;
3321;SDS011;1673;51.388;7.086;2023-08-01T21:06:04;9.68;;;3.78;;
3321;SDS011;1673;51.388;7.086;2023-08-01T21:08:34;10.90;;;4.90;;
3321;SDS011;1673;51.388;7.086;2023-08-01T21:11:08;13.93;;;4.55;;
3321;SDS011;1673;51.388;7.086;2023-08-01T21:13:42;10.68;;;3.38;;
3321;SDS011;1673;51.388;7.086;2023-08-01T21:16:14;9.10;;;3.08;;
3321;SDS011;1673;51.388;7.086;2023-08-01T21:18:46;7.70;;;2.97;;
3321;SDS011;1673;51.388;7.086;2023-08-01T21:21:20;11.98;;;4.15;;
3321;SDS011;1673;51.388;7.086;2023-08-01T21:23:51;8.20;;;3.20;;
3321;SDS011;1673;51.388;7.086;2023-08-01T21:26:21;10.83;;;3.40;;
3321;SDS011;1673;51.388;7.086;2023-08-01T21:28:53;9.48;;;3.20;;
3321;SDS011;1673;51.388;7.086;2023-08-01T21:31:23;12.60;;;3.60;;
3321;SDS011;1673;51.388;7.086;2023-08-01T21:33:53;8.63;;;3.20;;
3321;SDS011;1673;51.388;7.086;2023-08-01T21:36:23;10.20;;;3.15;;
3321;SDS011;1673;51.388;7.086;2023-08-01T21:38:53;11.77;;;3.30;;
3321;SDS011;1673;51.388;7.086;2023-08-01T21:41:23;10.52;;;3.00;;
3321;SDS011;1673;51.388;7.086;2023-08-01T21:43:56;10.68;;;3.50;;
3321;SDS011;1673;51.388;7.086;2023-08-01T21:46:27;9.43;;;3.25;;
3321;SDS011;1673;51.388;7.086;2023-08-01T21:49:00;11.90;;;3.30;;
3321;SDS011;1673;51.388;7.086;2023-08-01T21:51:30;9.30;;;3.47;;
3321;SDS011;1673;51.388;7.086;2023-08-01T21:54:00;8.77;;;3.40;;
3321;SDS011;1673;51.388;7.086;2023-08-01T21:56:32;11.02;;;3.33;;
3321;SDS011;1673;51.388;7.086;2023-08-01T21:59:05;12.60;;;3.70;;
3321;SDS011;1673;51.388;7.086;2023-08-01T22:01:36;10.65;;;3.42;;
3321;SDS011;1673;51.388;7.086;2023-08-01T22:04:06;12.20;;;3.30;;
3321;SDS011;1673;51.388;7.086;2023-08-01T22:06:40;8.32;;;3.00;;
3321;SDS011;1673;51.388;7.086;2023-08-01T22:09:10;10.02;;;3.40;;
3321;SDS011;1673;51.388;7.086;2023-08-01T22:11:40;12.13;;;3.20;;
3321;SDS011;1673;51.388;7.086;2023-08-01T22:14:13;8.87;;;3.20;;
3321;SDS011;1673;51.388;7.086;2023-08-01T22:16:43;14.05;;;3.78;;
3321;SDS011;1673;51.388;7.086;2023-08-01T22:19:13;11.55;;;3.70;;
3321;SDS011;1673;51.388;7.086;2023-08-01T22:21:43;12.18;;;3.50;;
3321;SDS011;1673;51.388;7.086;2023-08-01T22:24:13;12.52;;;3.63;;
3321;SDS011;1673;51.388;7.086;2023-08-01T22:26:43;14.40;;;3.60;;
3321;SDS011;1673;51.388;7.086;2023-08-01T22:29:15;10.55;;;3.83;;
3321;SDS011;1673;51.388;7.086;2023-08-01T22:31:45;11.82;;;4.15;;
3321;SDS011;1673;51.388;7.086;2023-08-01T22:34:15;11.88;;;4.05;;
3321;SDS011;1673;51.388;7.086;2023-08-01T22:36:45;15.18;;;4.60;;
3321;SDS011;1673;51.388;7.086;2023-08-01T22:39:12;9.05;;;3.75;;
3321;SDS011;1673;51.388;7.086;2023-08-01T22:41:43;14.70;;;4.10;;
3321;SDS011;1673;51.388;7.086;2023-08-01T22:44:16;13.27;;;4.78;;
3321;SDS011;1673;51.388;7.086;2023-08-01T22:46:46;10.32;;;3.92;;
3321;SDS011;1673;51.388;7.086;2023-08-01T22:49:16;12.13;;;4.03;;
3321;SDS011;1673;51.388;7.086;2023-08-01T22:51:46;11.55;;;4.10;;
3321;SDS011;1673;51.388;7.086;2023-08-01T22:54:15;12.13;;;3.60;;
3321;SDS011;1673;51.388;7.086;2023-08-01T22:56:45;13.60;;;4.53;;
3321;SDS011;1673;51.388;7.086;2023-08-01T22:59:18;13.30;;;3.63;;
3321;SDS011;1673;51.388;7.086;2023-08-01T23:01:48;12.50;;;3.30;;
3321;SDS011;1673;51.388;7.086;2023-08-01T23:04:18;10.98;;;3.75;;
3321;SDS011;1673;51.388;7.086;2023-08-01T23:06:48;14.23;;;3.97;;
3321;SDS011;1673;51.388;7.086;2023-08-01T23:09:19;16.20;;;4.20;;
3321;SDS011;1673;51.388;7.086;2023-08-01T23:11:49;11.17;;;3.90;;
3321;SDS011;1673;51.388;7.086;2023-08-01T23:14:21;8.27;;;3.42;;
3321;SDS011;1673;51.388;7.086;2023-08-01T23:16:51;10.27;;;3.20;;
3321;SDS011;1673;51.388;7.086;2023-08-01T23:19:22;12.25;;;3.28;;
3321;SDS011;1673;51.388;7.086;2023-08-01T23:21:51;8.68;;;3.92;;
3321;SDS011;1673;51.388;7.086;2023-08-01T23:24:21;8.85;;;3.70;;
3321;SDS011;1673;51.388;7.086;2023-08-01T23:26:52;7.78;;;3.20;;
3321;SDS011;1673;51.388;7.086;2023-08-01T23:29:24;10.70;;;3.50;;
3321;SDS011;1673;51.388;7.086;2023-08-01T23:31:54;13.13;;;4.07;;
3321;SDS011;1673;51.388;7.086;2023-08-01T23:34:24;9.23;;;3.85;;
3321;SDS011;1673;51.388;7.086;2023-08-01T23:36:54;11.15;;;3.70;;
3321;SDS011;1673;51.388;7.086;2023-08-01T23:39:25;10.45;;;3.45;;
3321;SDS011;1673;51.388;7.086;2023-08-01T23:41:56;14.03;;;3.43;;
3321;SDS011;1673;51.388;7.086;2023-08-01T23:44:29;11.65;;;3.55;;
3321;SDS011;1673;51.388;7.086;2023-08-01T23:46:59;15.05;;;4.50;;
3321;SDS011;1673;51.388;7.086;2023-08-01T23:49:30;11.10;;;3.50;;
3321;SDS011;1673;51.388;7.086;2023-08-01T23:52:01;11.57;;;3.47;;
3321;SDS011;1673;51.388;7.086;2023-08-01T23:54:31;11.13;;;3.40;;
3321;SDS011;1673;51.388;7.086;2023-08-01T23:57:01;10.45;;;3.92;;
3321;SDS011;1673;51.388;7.086;2023-08-01T23:59:33;10.10;;;3.50;;
